createdAt,value
2023-01-13T00:01:17.461Z,96476.97
2023-01-13T00:03:43.756Z,96474.56
2023-01-13T00:06:10.044Z,96479.22
2023-01-13T00:08:36.348Z,96483.03
2023-01-13T00:11:02.643Z,96487.72
2023-01-13T00:13:28.935Z,96484.88
2023-01-13T00:15:55.324Z,96487.22
2023-01-13T00:18:21.637Z,96487.25
2023-01-13T00:20:47.923Z,96486.06
2023-01-13T00:23:14.241Z,96467.16
2023-01-13T00:25:40.523Z,96473.84
2023-01-13T00:28:06.813Z,96465.16
2023-01-13T00:30:33.123Z,96464.38
2023-01-13T00:32:59.402Z,96477.56
2023-01-13T00:35:25.682Z,96470.44
2023-01-13T00:37:52.021Z,96477.81
2023-01-13T00:40:18.378Z,96479.66
2023-01-13T00:42:44.675Z,96476.34
2023-01-13T00:45:10.981Z,96479.50
2023-01-13T00:47:37.265Z,96468.16
2023-01-13T00:50:03.562Z,96467.66
2023-01-13T00:52:29.874Z,96467.66
2023-01-13T00:54:56.178Z,96463.69
2023-01-13T00:57:22.478Z,96459.41
2023-01-13T00:59:49.635Z,96457.72
2023-01-13T01:02:16.180Z,96457.75
2023-01-13T01:04:42.521Z,96453.78
2023-01-13T01:07:08.832Z,96453.22
2023-01-13T01:09:35.115Z,96452.91
2023-01-13T01:12:01.428Z,96466.47
2023-01-13T01:14:27.736Z,96456.84
2023-01-13T01:16:54.044Z,96453.88
2023-01-13T01:19:20.335Z,96448.59
2023-01-13T01:21:46.680Z,96457.41
2023-01-13T01:24:12.984Z,96453.63
2023-01-13T01:26:39.274Z,96455.53
2023-01-13T01:29:05.594Z,96456.06
2023-01-13T01:31:31.938Z,96456.63
2023-01-13T01:33:58.257Z,96448.94
2023-01-13T01:36:24.591Z,96458.91
2023-01-13T01:38:50.897Z,96460.56
2023-01-13T01:41:17.188Z,96456.28
2023-01-13T01:43:43.501Z,96460.94
2023-01-13T01:46:09.793Z,96456.31
2023-01-13T01:48:36.082Z,96456.22
2023-01-13T01:51:02.387Z,96457.38
2023-01-13T01:53:28.676Z,96457.72
2023-01-13T01:55:54.966Z,96459.63
2023-01-13T01:58:21.284Z,96451.81
2023-01-13T02:00:47.602Z,96447.97
2023-01-13T02:03:13.898Z,96449.31
2023-01-13T02:05:40.234Z,96444.94
2023-01-13T02:08:06.521Z,96456.28
2023-01-13T02:10:32.805Z,96455.66
2023-01-13T02:12:59.109Z,96460.69
2023-01-13T02:15:25.421Z,96451.25
2023-01-13T02:17:51.704Z,96445.78
2023-01-13T02:20:18.022Z,96445.72
2023-01-13T02:22:44.292Z,96449.34
2023-01-13T02:25:10.579Z,96441.34
2023-01-13T02:27:37.013Z,96440.88
2023-01-13T02:30:03.447Z,96438.00
2023-01-13T02:32:29.732Z,96439.59
2023-01-13T02:34:56.028Z,96424.09
2023-01-13T02:37:22.312Z,96430.25
2023-01-13T02:39:48.590Z,96427.16
2023-01-13T02:42:14.900Z,96432.09
2023-01-13T02:44:41.187Z,96426.00
2023-01-13T02:47:07.468Z,96436.63
2023-01-13T02:49:33.772Z,96428.38
2023-01-13T02:52:00.061Z,96431.13
2023-01-13T02:54:26.346Z,96422.69
2023-01-13T02:56:52.652Z,96416.75
2023-01-13T02:59:18.923Z,96405.91
2023-01-13T03:01:45.275Z,96402.88
2023-01-13T03:04:11.658Z,96402.25
2023-01-13T03:06:38.014Z,96399.22
2023-01-13T03:09:04.342Z,96408.34
2023-01-13T03:11:30.654Z,96407.81
2023-01-13T03:13:56.950Z,96403.56
2023-01-13T03:16:23.282Z,96403.47
2023-01-13T03:18:49.617Z,96407.38
2023-01-13T03:21:15.901Z,96401.13
2023-01-13T03:23:42.221Z,96398.78
2023-01-13T03:26:08.537Z,96389.31
2023-01-13T03:28:34.843Z,96385.88
2023-01-13T03:31:01.146Z,96387.47
2023-01-13T03:33:27.492Z,96383.88
2023-01-13T03:35:53.779Z,96387.34
2023-01-13T03:38:20.082Z,96385.66
2023-01-13T03:40:46.397Z,96388.25
2023-01-13T03:43:12.691Z,96394.59
2023-01-13T03:45:39.020Z,96389.75
2023-01-13T03:48:05.346Z,96403.28
2023-01-13T03:50:31.651Z,96397.69
2023-01-13T03:52:57.960Z,96403.44
2023-01-13T03:55:24.259Z,96409.78
2023-01-13T03:57:50.558Z,96404.81
2023-01-13T04:00:16.857Z,96408.66
2023-01-13T04:02:43.162Z,96405.25
2023-01-13T04:05:09.460Z,96407.00
2023-01-13T04:07:35.754Z,96394.75
2023-01-13T04:10:02.247Z,96388.97
2023-01-13T04:12:28.635Z,96397.50
2023-01-13T04:14:54.932Z,96400.63
2023-01-13T04:17:21.238Z,96382.81
2023-01-13T04:19:47.543Z,96399.09
2023-01-13T04:22:13.849Z,96394.50
2023-01-13T04:24:40.154Z,96398.38
2023-01-13T04:27:06.478Z,96391.81
2023-01-13T04:29:32.767Z,96389.69
2023-01-13T04:31:59.090Z,96397.50
2023-01-13T04:34:27.538Z,96388.06
2023-01-13T04:36:54.643Z,96384.63
2023-01-13T04:39:20.997Z,96379.16
2023-01-13T04:41:47.311Z,96382.34
2023-01-13T04:44:13.598Z,96377.50
2023-01-13T04:46:40.031Z,96373.56
2023-01-13T04:49:06.365Z,96378.28
2023-01-13T04:51:32.659Z,96374.81
2023-01-13T04:53:58.982Z,96375.53
2023-01-13T04:56:25.284Z,96377.94
2023-01-13T04:58:51.584Z,96375.59
2023-01-13T05:01:18.006Z,96377.31
2023-01-13T05:03:44.327Z,96366.19
2023-01-13T05:06:10.617Z,96369.38
2023-01-13T05:08:36.955Z,96370.53
2023-01-13T05:11:03.274Z,96372.16
2023-01-13T05:13:29.554Z,96376.63
2023-01-13T05:15:55.905Z,96379.31
2023-01-13T05:18:22.253Z,96386.06
2023-01-13T05:20:48.548Z,96378.22
2023-01-13T05:23:14.873Z,96409.81
2023-01-13T05:25:42.858Z,96377.06
2023-01-13T05:28:10.456Z,96409.13
2023-01-13T05:30:36.775Z,96398.84
2023-01-13T05:33:03.082Z,96400.06
2023-01-13T05:35:29.384Z,96396.19
2023-01-13T05:37:55.718Z,96397.72
2023-01-13T05:40:22.008Z,96394.91
2023-01-13T05:42:51.165Z,96393.00
2023-01-13T05:45:17.551Z,96384.28
2023-01-13T05:47:43.844Z,96387.75
2023-01-13T05:50:10.152Z,96388.72
2023-01-13T05:52:36.476Z,96391.44
2023-01-13T05:55:02.791Z,96400.66
2023-01-13T05:57:29.094Z,96400.63
2023-01-13T05:59:55.401Z,96395.44
2023-01-13T06:02:21.706Z,96399.84
2023-01-13T06:04:48.069Z,96405.44
2023-01-13T06:07:14.414Z,96388.47
2023-01-13T06:09:40.730Z,96398.41
2023-01-13T06:12:07.024Z,96405.81
2023-01-13T06:14:34.990Z,96392.06
2023-01-13T06:17:02.779Z,96388.50
2023-01-13T06:19:29.072Z,96381.03
2023-01-13T06:21:55.381Z,96388.88
2023-01-13T06:24:21.678Z,96398.03
2023-01-13T06:26:47.974Z,96407.09
2023-01-13T06:29:14.291Z,96399.59
2023-01-13T06:31:40.654Z,96412.63
2023-01-13T06:34:06.977Z,96397.28
2023-01-13T06:36:33.313Z,96398.41
2023-01-13T06:38:59.625Z,96388.91
2023-01-13T06:41:25.935Z,96403.91
2023-01-13T06:43:52.235Z,96391.66
2023-01-13T06:46:18.558Z,96401.22
2023-01-13T06:48:44.868Z,96405.91
2023-01-13T06:51:11.215Z,96410.28
2023-01-13T06:53:37.512Z,96407.50
2023-01-13T06:56:03.810Z,96408.66
2023-01-13T06:58:30.126Z,96409.00
2023-01-13T07:00:56.471Z,96401.13
2023-01-13T07:03:22.814Z,96405.06
2023-01-13T07:05:49.165Z,96406.97
2023-01-13T07:08:15.468Z,96414.09
2023-01-13T07:10:41.763Z,96406.56
2023-01-13T07:13:08.149Z,96420.81
2023-01-13T07:15:34.453Z,96413.31
2023-01-13T07:18:00.738Z,96409.03
2023-01-13T07:20:27.044Z,96409.03
2023-01-13T07:22:53.343Z,96418.53
2023-01-13T07:25:19.652Z,96414.94
2023-01-13T07:27:45.977Z,96421.31
2023-01-13T07:30:12.277Z,96415.38
2023-01-13T07:32:38.572Z,96426.91
2023-01-13T07:35:04.907Z,96431.63
2023-01-13T07:37:31.202Z,96432.44
2023-01-13T07:39:57.489Z,96447.00
2023-01-13T07:42:23.795Z,96443.00
2023-01-13T07:44:50.098Z,96443.78
2023-01-13T07:47:17.534Z,96453.28
2023-01-13T07:49:43.851Z,96431.06
2023-01-13T07:52:10.147Z,96439.03
2023-01-13T07:54:40.870Z,96437.03
2023-01-13T07:57:07.525Z,96433.50
2023-01-13T07:59:33.828Z,96426.34
2023-01-13T08:02:00.383Z,96428.34
2023-01-13T08:04:32.951Z,96442.91
2023-01-13T08:06:59.240Z,96439.34
2023-01-13T08:09:25.657Z,96447.69
2023-01-13T08:11:51.978Z,96450.88
2023-01-13T08:14:18.285Z,96439.38
2023-01-13T08:16:44.861Z,96454.88
2023-01-13T08:19:11.273Z,96459.66
2023-01-13T08:21:37.564Z,96466.81
2023-01-13T08:24:03.842Z,96466.00
2023-01-13T08:26:30.172Z,96460.44
2023-01-13T08:28:56.464Z,96466.00
2023-01-13T08:31:22.821Z,96458.09
2023-01-13T08:33:49.153Z,96469.94
2023-01-13T08:36:15.450Z,96473.88
2023-01-13T08:38:41.743Z,96463.97
2023-01-13T08:41:08.081Z,96490.09
2023-01-13T08:43:34.472Z,96488.91
2023-01-13T08:46:00.870Z,96479.03
2023-01-13T08:48:28.556Z,96484.53
2023-01-13T08:50:56.022Z,96490.84
2023-01-13T08:53:22.353Z,96490.50
2023-01-13T08:55:48.672Z,96476.22
2023-01-13T08:58:16.384Z,96483.75
2023-01-13T09:00:42.776Z,96485.34
2023-01-13T09:03:09.148Z,96492.50
2023-01-13T09:05:35.464Z,96488.09
2023-01-13T09:08:01.843Z,96510.59
2023-01-13T09:10:28.164Z,96504.28
2023-01-13T09:12:54.475Z,96512.16
2023-01-13T09:15:20.966Z,96511.41
2023-01-13T09:17:47.361Z,96507.06
2023-01-13T09:20:13.660Z,96509.44
2023-01-13T09:22:39.995Z,96510.25
2023-01-13T09:25:06.315Z,96508.66
2023-01-13T09:27:32.620Z,96515.34
2023-01-13T09:29:58.920Z,96518.84
2023-01-13T09:32:25.375Z,96535.41
2023-01-13T09:34:51.735Z,96522.75
2023-01-13T09:37:18.235Z,96537.34
2023-01-13T09:39:44.544Z,96533.78
2023-01-13T09:42:10.840Z,96544.88
2023-01-13T09:44:37.188Z,96546.09
2023-01-13T09:47:03.577Z,96545.72
2023-01-13T09:49:29.870Z,96534.63
2023-01-13T09:51:56.171Z,96537.41
2023-01-13T09:54:22.485Z,96543.75
2023-01-13T09:56:48.792Z,96533.84
2023-01-13T09:59:15.089Z,96544.94
2023-01-13T10:01:41.388Z,96559.59
2023-01-13T10:04:09.248Z,96552.84
2023-01-13T10:06:35.590Z,96549.66
2023-01-13T10:09:01.967Z,96546.09
2023-01-13T10:11:28.282Z,96533.44
2023-01-13T10:13:54.600Z,96554.81
2023-01-13T10:16:20.962Z,96552.75
2023-01-13T10:18:47.267Z,96549.56
2023-01-13T10:21:13.558Z,96574.50
2023-01-13T10:23:39.882Z,96557.44
2023-01-13T10:26:06.278Z,96563.81
2023-01-13T10:28:32.600Z,96562.13
2023-01-13T10:30:58.951Z,96555.78
2023-01-13T10:33:27.727Z,96552.38
2023-01-13T10:35:55.011Z,96553.38
2023-01-13T10:38:21.363Z,96548.19
2023-01-13T10:40:47.656Z,96544.94
2023-01-13T10:43:13.970Z,96534.66
2023-01-13T10:45:40.376Z,96545.75
2023-01-13T10:48:06.710Z,96538.00
2023-01-13T10:50:33.011Z,96543.59
2023-01-13T10:52:59.341Z,96548.19
2023-01-13T10:55:25.642Z,96544.44
2023-01-13T10:57:51.943Z,96537.03
2023-01-13T11:00:18.307Z,96543.84
2023-01-13T11:02:44.614Z,96545.84
2023-01-13T11:05:11.075Z,96528.56
2023-01-13T11:07:37.419Z,96555.16
2023-01-13T11:10:03.727Z,96536.13
2023-01-13T11:12:30.033Z,96527.00
2023-01-13T11:14:58.703Z,96544.84
2023-01-13T11:17:25.011Z,96549.19
2023-01-13T11:19:51.308Z,96550.91
2023-01-13T11:22:17.637Z,96552.47
2023-01-13T11:24:43.943Z,96544.59
2023-01-13T11:27:10.243Z,96541.41
2023-01-13T11:29:36.564Z,96540.16
2023-01-13T11:32:02.854Z,96529.47
2023-01-13T11:34:29.168Z,96535.31
2023-01-13T11:36:55.519Z,96537.72
2023-01-13T11:39:21.830Z,96546.00
2023-01-13T11:41:48.121Z,96547.69
2023-01-13T11:44:14.448Z,96566.72
2023-01-13T11:46:40.831Z,96585.44
2023-01-13T11:49:07.166Z,96580.31
2023-01-13T11:51:33.473Z,96571.16
2023-01-13T11:53:59.796Z,96582.19
2023-01-13T11:56:26.100Z,96583.69
2023-01-13T11:58:52.433Z,96589.13
2023-01-13T12:01:20.015Z,96580.63
2023-01-13T12:03:47.879Z,96561.91
2023-01-13T12:06:14.191Z,96552.91
2023-01-13T12:08:40.484Z,96563.28
2023-01-13T12:11:06.940Z,96569.72
2023-01-13T12:13:33.287Z,96560.22
2023-01-13T12:15:59.567Z,96567.00
2023-01-13T12:18:25.881Z,96559.41
2023-01-13T12:20:52.243Z,96574.84
2023-01-13T12:23:18.534Z,96577.09
2023-01-13T12:25:44.813Z,96566.50
2023-01-13T12:28:11.109Z,96547.91
2023-01-13T12:30:37.414Z,96547.56
2023-01-13T12:33:03.706Z,96552.66
2023-01-13T12:35:30.027Z,96555.84
2023-01-13T12:37:56.335Z,96547.47
2023-01-13T12:40:22.651Z,96541.91
2023-01-13T12:42:48.974Z,96546.56
2023-01-13T12:45:16.876Z,96551.69
2023-01-13T12:47:44.722Z,96551.69
2023-01-13T12:50:11.046Z,96546.25
2023-01-13T12:52:37.339Z,96554.38
2023-01-13T12:55:03.653Z,96548.56
2023-01-13T12:57:29.968Z,96558.47
2023-01-13T12:59:56.262Z,96563.25
2023-01-13T13:02:22.645Z,96565.19
2023-01-13T13:04:48.994Z,96561.38
2023-01-13T13:07:15.286Z,96563.31
2023-01-13T13:09:41.577Z,96570.50
2023-01-13T13:12:07.893Z,96566.41
2023-01-13T13:14:34.254Z,96559.94
2023-01-13T13:17:00.725Z,96543.28
2023-01-13T13:19:27.109Z,96548.19
2023-01-13T13:21:53.412Z,96539.66
2023-01-13T13:24:19.706Z,96531.25
2023-01-13T13:26:46.078Z,96531.75
2023-01-13T13:29:12.363Z,96543.34
2023-01-13T13:31:38.675Z,96554.75
2023-01-13T13:34:04.980Z,96557.09
2023-01-13T13:36:31.266Z,96562.28
2023-01-13T13:38:57.566Z,96552.03
2023-01-13T13:41:23.887Z,96559.66
2023-01-13T13:43:50.202Z,96554.53
2023-01-13T13:46:16.542Z,96562.34
2023-01-13T13:48:42.937Z,96566.00
2023-01-13T13:51:09.220Z,96568.00
2023-01-13T13:53:35.504Z,96572.66
2023-01-13T13:56:01.831Z,96577.69
2023-01-13T13:58:28.148Z,96580.31
2023-01-13T14:00:54.487Z,96580.31
2023-01-13T14:03:20.879Z,96576.31
2023-01-13T14:05:47.196Z,96579.03
2023-01-13T14:08:13.484Z,96575.94
2023-01-13T14:10:39.861Z,96585.56
2023-01-13T14:13:06.199Z,96584.94
2023-01-13T14:15:32.623Z,96580.97
2023-01-13T14:17:59.011Z,96586.09
2023-01-13T14:20:25.299Z,96587.34
2023-01-13T14:22:51.619Z,96586.66
2023-01-13T14:25:17.926Z,96589.91
2023-01-13T14:27:44.219Z,96611.31
2023-01-13T14:30:10.498Z,96617.38
2023-01-13T14:32:36.854Z,96603.91
2023-01-13T14:35:03.187Z,96598.38
2023-01-13T14:37:29.482Z,96599.28
2023-01-13T14:39:55.802Z,96612.22
2023-01-13T14:42:22.166Z,96616.16
2023-01-13T14:44:48.474Z,96624.78
2023-01-13T14:47:14.790Z,96617.31
2023-01-13T14:49:41.067Z,96628.09
2023-01-13T14:52:07.353Z,96632.06
2023-01-13T14:54:33.662Z,96640.16
2023-01-13T14:56:59.962Z,96658.41
2023-01-13T14:59:26.256Z,96663.53
2023-01-13T15:01:52.598Z,96657.94
2023-01-13T15:04:18.913Z,96663.94
2023-01-13T15:06:45.210Z,96670.31
2023-01-13T15:09:11.531Z,96677.91
2023-01-13T15:11:37.826Z,96677.53
2023-01-13T15:14:04.102Z,96655.00
2023-01-13T15:16:30.442Z,96645.09
2023-01-13T15:18:56.789Z,96643.91
2023-01-13T15:21:23.180Z,96642.00
2023-01-13T15:23:49.585Z,96634.88
2023-01-13T15:26:15.873Z,96631.75
2023-01-13T15:28:42.162Z,96648.38
2023-01-13T15:31:08.560Z,96661.06
2023-01-13T15:33:36.274Z,96667.00
2023-01-13T15:36:02.580Z,96682.06
2023-01-13T15:38:28.937Z,96674.53
2023-01-13T15:40:55.237Z,96674.50
2023-01-13T15:43:21.529Z,96682.78
2023-01-13T15:45:47.866Z,96692.28
2023-01-13T15:48:14.155Z,96702.69
2023-01-13T15:50:40.449Z,96705.53
2023-01-13T15:53:06.997Z,96692.81
2023-01-13T15:55:33.288Z,96696.25
2023-01-13T15:57:59.585Z,96692.22
2023-01-13T16:00:25.940Z,96697.44
2023-01-13T16:02:52.320Z,96700.22
2023-01-13T16:05:18.747Z,96711.34
2023-01-13T16:07:45.057Z,96710.94
2023-01-13T16:10:11.360Z,96714.94
2023-01-13T16:12:37.663Z,96716.13
2023-01-13T16:15:03.961Z,96722.84
2023-01-13T16:17:30.242Z,96722.84
2023-01-13T16:19:56.537Z,96731.56
2023-01-13T16:22:22.862Z,96735.50
2023-01-13T16:24:49.136Z,96743.00
2023-01-13T16:27:17.775Z,96751.38
2023-01-13T16:29:44.094Z,96742.59
2023-01-13T16:32:10.405Z,96752.06
2023-01-13T16:34:36.713Z,96761.25
2023-01-13T16:37:03.054Z,96774.34
2023-01-13T16:39:29.362Z,96769.13
2023-01-13T16:41:55.661Z,96778.25
2023-01-13T16:44:22.016Z,96783.81
2023-01-13T16:46:48.326Z,96791.75
2023-01-13T16:49:14.628Z,96802.84
2023-01-13T16:51:40.927Z,96797.69
2023-01-13T16:54:07.216Z,96806.41
2023-01-13T16:56:33.510Z,96809.56
2023-01-13T16:58:59.825Z,96809.16
2023-01-13T17:01:26.338Z,96811.53
2023-01-13T17:03:52.770Z,96811.94
2023-01-13T17:06:19.223Z,96815.50
2023-01-13T17:08:45.510Z,96816.31
2023-01-13T17:11:11.808Z,96818.28
2023-01-13T17:13:38.126Z,96823.03
2023-01-13T17:16:04.429Z,96823.44
2023-01-13T17:18:30.735Z,96811.13
2023-01-13T17:20:57.048Z,96798.47
2023-01-13T17:23:23.339Z,96802.06
2023-01-13T17:25:49.625Z,96806.44
2023-01-13T17:28:15.949Z,96811.16
2023-01-13T17:30:42.243Z,96825.03
2023-01-13T17:33:08.571Z,96823.44
2023-01-13T17:35:34.975Z,96832.91
2023-01-13T17:38:01.266Z,96835.72
2023-01-13T17:40:27.579Z,96842.81
2023-01-13T17:42:53.893Z,96853.53
2023-01-13T17:45:20.196Z,96856.69
2023-01-13T17:47:47.487Z,96856.31
2023-01-13T17:50:14.038Z,96856.31
2023-01-13T17:52:40.330Z,96866.22
2023-01-13T17:55:06.622Z,96869.38
2023-01-13T17:57:32.937Z,96881.25
2023-01-13T17:59:59.249Z,96896.28
2023-01-13T18:02:25.599Z,96906.56
2023-01-13T18:04:51.960Z,96907.38
2023-01-13T18:07:18.262Z,96912.91
2023-01-13T18:09:44.554Z,96921.63
2023-01-13T18:12:10.883Z,96924.81
2023-01-13T18:14:37.204Z,96926.38
2023-01-13T18:17:03.525Z,96942.25
2023-01-13T18:19:29.849Z,96963.22
2023-01-13T18:21:56.150Z,96964.81
2023-01-13T18:24:22.441Z,96964.75
2023-01-13T18:26:48.749Z,96959.53
2023-01-13T18:29:15.041Z,96959.56
2023-01-13T18:31:41.338Z,96931.88
2023-01-13T18:34:07.712Z,96947.75
2023-01-13T18:36:34.010Z,96954.88
2023-01-13T18:39:00.311Z,96957.25
2023-01-13T18:41:26.632Z,96955.66
2023-01-13T18:43:52.936Z,96958.47
2023-01-13T18:46:19.292Z,96963.59
2023-01-13T18:48:45.651Z,96969.53
2023-01-13T18:51:11.945Z,96966.75
2023-01-13T18:53:38.234Z,96973.03
2023-01-13T18:56:04.573Z,96966.69
2023-01-13T18:58:30.870Z,96968.31
2023-01-13T19:00:57.211Z,96966.72
2023-01-13T19:03:29.918Z,96958.81
2023-01-13T19:05:57.022Z,96959.66
2023-01-13T19:08:23.314Z,96969.13
2023-01-13T19:10:49.643Z,96967.16
2023-01-13T19:13:15.947Z,96967.56
2023-01-13T19:15:42.325Z,96963.19
2023-01-13T19:18:08.661Z,96973.88
2023-01-13T19:20:34.967Z,96975.88
2023-01-13T19:23:01.271Z,96967.97
2023-01-13T19:25:27.593Z,96975.88
2023-01-13T19:27:53.881Z,96985.81
2023-01-13T19:30:20.193Z,96990.97
2023-01-13T19:32:46.531Z,96977.91
2023-01-13T19:35:12.818Z,96996.09
2023-01-13T19:37:39.097Z,96997.72
2023-01-13T19:40:05.395Z,96992.56
2023-01-13T19:42:31.702Z,96999.69
2023-01-13T19:44:58.007Z,97006.38
2023-01-13T19:47:24.323Z,97009.16
2023-01-13T19:49:50.601Z,97015.91
2023-01-13T19:52:16.896Z,97016.72
2023-01-13T19:54:43.207Z,97020.25
2023-01-13T19:57:09.522Z,97019.47
2023-01-13T19:59:35.830Z,97023.44
2023-01-13T20:02:02.253Z,97020.66
2023-01-13T20:04:28.611Z,97017.47
2023-01-13T20:06:54.909Z,97011.16
2023-01-13T20:09:21.248Z,97009.56
2023-01-13T20:11:47.551Z,97010.00
2023-01-13T20:14:13.842Z,97019.09
2023-01-13T20:16:40.148Z,97030.19
2023-01-13T20:19:06.443Z,97023.84
2023-01-13T20:21:32.738Z,97025.44
2023-01-13T20:23:59.048Z,97023.44
2023-01-13T20:26:25.337Z,97025.81
2023-01-13T20:28:51.619Z,97036.13
2023-01-13T20:31:17.961Z,97041.66
2023-01-13T20:33:44.292Z,97052.78
2023-01-13T20:36:10.593Z,97050.00
2023-01-13T20:38:36.909Z,97048.41
2023-01-13T20:41:03.208Z,97057.53
2023-01-13T20:43:29.501Z,97054.75
2023-01-13T20:45:55.813Z,97057.53
2023-01-13T20:48:22.104Z,97056.31
2023-01-13T20:50:48.427Z,97060.31
2023-01-13T20:53:14.741Z,97062.66
2023-01-13T20:55:41.045Z,97053.53
2023-01-13T20:58:07.345Z,97053.19
2023-01-13T21:00:33.689Z,97054.31
2023-01-13T21:02:59.990Z,97047.19
2023-01-13T21:05:26.292Z,97041.28
2023-01-13T21:07:52.635Z,97054.72
2023-01-13T21:10:18.923Z,97044.84
2023-01-13T21:12:45.209Z,97054.69
2023-01-13T21:15:11.542Z,97054.34
2023-01-13T21:17:37.840Z,97050.78
2023-01-13T21:20:04.649Z,97042.06
2023-01-13T21:22:31.081Z,97046.81
2023-01-13T21:24:57.486Z,97034.13
2023-01-13T21:27:23.775Z,97024.63
2023-01-13T21:29:50.081Z,97042.84
2023-01-13T21:32:16.355Z,97038.88
2023-01-13T21:34:42.635Z,97038.88
2023-01-13T21:37:08.967Z,97032.91
2023-01-13T21:39:35.259Z,97042.81
2023-01-13T21:42:01.536Z,97041.63
2023-01-13T21:44:27.878Z,97034.88
2023-01-13T21:46:54.171Z,97044.44
2023-01-13T21:49:20.459Z,97048.78
2023-01-13T21:51:46.777Z,97041.59
2023-01-13T21:54:13.078Z,97045.56
2023-01-13T21:56:39.371Z,97057.06
2023-01-13T21:59:07.637Z,97070.50
2023-01-13T22:01:33.971Z,97074.47
2023-01-13T22:04:00.289Z,97080.41
2023-01-13T22:06:26.625Z,97082.06
2023-01-13T22:08:52.943Z,97086.38
2023-01-13T22:11:19.241Z,97085.97
2023-01-13T22:13:47.134Z,97081.19
2023-01-13T22:16:14.165Z,97077.63
2023-01-13T22:18:40.487Z,97077.59
2023-01-13T22:21:06.822Z,97079.91
2023-01-13T22:23:33.126Z,97081.44
2023-01-13T22:25:59.423Z,97081.06
2023-01-13T22:28:25.729Z,97078.66
2023-01-13T22:30:52.020Z,97084.97
2023-01-13T22:33:18.314Z,97098.81
2023-01-13T22:35:44.624Z,97095.69
2023-01-13T22:38:10.909Z,97097.25
2023-01-13T22:40:37.198Z,97097.25
2023-01-13T22:43:03.513Z,97088.63
2023-01-13T22:45:29.806Z,97082.63
2023-01-13T22:47:56.106Z,97084.66
2023-01-13T22:50:22.414Z,97073.59
2023-01-13T22:52:48.692Z,97078.34
2023-01-13T22:55:14.979Z,97080.34
2023-01-13T22:57:47.730Z,97074.44
2023-01-13T23:00:14.714Z,97077.63
2023-01-13T23:02:41.019Z,97068.09
2023-01-13T23:05:07.317Z,97066.91
2023-01-13T23:07:33.619Z,97065.72
2023-01-13T23:09:59.944Z,97072.00
2023-01-13T23:12:26.243Z,97068.16
2023-01-13T23:14:52.557Z,97062.56
2023-01-13T23:17:18.932Z,97059.34
2023-01-13T23:19:45.225Z,97052.66
2023-01-13T23:22:11.527Z,97057.00
2023-01-13T23:24:37.851Z,97057.03
2023-01-13T23:27:04.162Z,97047.84
2023-01-13T23:29:30.470Z,97044.28
2023-01-13T23:31:56.780Z,97038.34
2023-01-13T23:34:23.074Z,97043.88
2023-01-13T23:36:49.402Z,97035.13
2023-01-13T23:39:15.720Z,97037.84
2023-01-13T23:41:42.016Z,97041.72
2023-01-13T23:44:08.313Z,97043.34
2023-01-13T23:46:34.624Z,97034.69
2023-01-13T23:49:00.931Z,97030.75
2023-01-13T23:51:27.241Z,97026.13
2023-01-13T23:53:53.565Z,97036.03
2023-01-13T23:56:19.871Z,97027.69
2023-01-13T23:58:46.171Z,97034.81
